Time;durP1;ratioP1;P1;durP2;ratioP2;P2;SDS_P1;SDS_P2;PMS_P1;PMS_P2;Temp;Humidity;BMP_temperature;BMP_pressure;BME280_temperature;BME280_humidity;BME280_pressure;Samples;Min_cycle;Max_cycle;Signal;HPM_P1;HPM_P2
2023/04/16 00:00:06;;;;;;;21.02;3.08;;;8.90;99.90;;;;;;5012038;28;20022;-70
2023/04/16 00:02:32;;;;;;;11.68;2.92;;;8.90;99.90;;;;;;5009796;28;20022;-70
2023/04/16 00:04:58;;;;;;;15.68;2.83;;;8.90;99.90;;;;;;5011200;28;20030;-70
2023/04/16 00:07:23;;;;;;;15.80;3.08;;;8.90;99.90;;;;;;5007521;28;20116;-70
2023/04/16 00:09:49;;;;;;;17.52;3.10;;;8.90;99.90;;;;;;5001520;28;20393;-71
2023/04/16 00:12:15;;;;;;;19.80;2.97;;;8.90;99.90;;;;;;5011173;28;20498;-71
2023/04/16 00:14:42;;;;;;;11.95;2.90;;;8.90;99.90;;;;;;5011391;28;20586;-71
2023/04/16 00:17:08;;;;;;;18.17;3.22;;;8.90;99.90;;;;;;5012414;28;20022;-72
2023/04/16 00:19:34;;;;;;;13.63;2.78;;;8.90;99.90;;;;;;5011738;28;20041;-71
2023/04/16 00:21:59;;;;;;;14.75;2.90;;;8.90;99.90;;;;;;5011735;28;20028;-71
2023/04/16 00:24:25;;;;;;;13.98;2.75;;;8.90;99.90;;;;;;5011289;28;20060;-71
2023/04/16 00:26:51;;;;;;;19.23;3.42;;;8.90;99.90;;;;;;5011381;28;20025;-71
2023/04/16 00:29:16;;;;;;;14.07;2.88;;;8.90;99.90;;;;;;5011988;28;20033;-71
2023/04/16 00:31:42;;;;;;;9.82;3.00;;;8.90;99.90;;;;;;5010192;28;20093;-71
2023/04/16 00:34:07;;;;;;;9.13;2.13;;;8.90;99.90;;;;;;5012263;28;20099;-70
2023/04/16 00:36:33;;;;;;;11.35;2.50;;;8.90;99.90;;;;;;5012816;28;20018;-72
2023/04/16 00:38:58;;;;;;;10.27;2.25;;;8.90;99.90;;;;;;5012584;28;20061;-72
2023/04/16 00:41:25;;;;;;;18.58;2.20;;;8.90;99.90;;;;;;5012742;28;20536;-70
2023/04/16 00:43:51;;;;;;;14.85;2.50;;;8.90;99.90;;;;;;4997794;28;20021;-70
2023/04/16 00:46:18;;;;;;;19.05;2.47;;;8.90;99.90;;;;;;5011295;28;20615;-71
2023/04/16 00:48:44;;;;;;;15.60;3.00;;;8.90;99.90;;;;;;5011281;28;20053;-71
2023/04/16 00:51:10;;;;;;;11.73;2.42;;;8.90;99.90;;;;;;5011151;28;20065;-70
2023/04/16 00:53:36;;;;;;;9.80;2.38;;;8.90;99.90;;;;;;5006548;28;20624;-70
2023/04/16 00:56:04;;;;;;;16.20;3.05;;;8.90;99.90;;;;;;5003560;28;20033;-70
2023/04/16 00:58:30;;;;;;;12.90;2.88;;;8.80;99.90;;;;;;5005507;28;20030;-71
2023/04/16 01:00:56;;;;;;;12.50;2.63;;;8.80;99.90;;;;;;5003564;28;20404;-71
2023/04/16 01:03:23;;;;;;;12.95;2.92;;;8.80;99.90;;;;;;5010215;28;20053;-71
2023/04/16 01:05:50;;;;;;;14.07;2.55;;;8.90;99.90;;;;;;5008740;28;20071;-72
2023/04/16 01:08:20;;;;;;;18.40;2.53;;;8.90;99.90;;;;;;5011824;28;20018;-71
2023/04/16 01:10:45;;;;;;;11.02;2.53;;;8.90;99.90;;;;;;5012327;28;20184;-71
2023/04/16 01:13:11;;;;;;;14.27;2.35;;;8.90;99.90;;;;;;5010457;28;20550;-71
2023/04/16 01:15:37;;;;;;;14.75;2.75;;;8.90;99.90;;;;;;5010545;28;20480;-71
2023/04/16 01:18:16;;;;;;;7.60;2.28;;;8.90;99.90;;;;;;5010774;28;20029;-71
2023/04/16 01:20:41;;;;;;;10.75;2.30;;;8.90;99.90;;;;;;5010348;28;20045;-71
2023/04/16 01:23:07;;;;;;;14.02;2.50;;;8.90;99.90;;;;;;5010372;28;20018;-70
2023/04/16 01:25:32;;;;;;;11.82;2.90;;;8.90;99.90;;;;;;5010093;28;20065;-70
2023/04/16 01:27:58;;;;;;;6.97;1.90;;;8.90;99.90;;;;;;5011082;28;20468;-70
2023/04/16 01:30:24;;;;;;;21.52;2.97;;;8.90;99.90;;;;;;5010085;28;20026;-71
2023/04/16 01:32:50;;;;;;;12.60;2.95;;;8.90;99.90;;;;;;5010257;28;20069;-71
2023/04/16 01:35:17;;;;;;;13.82;2.75;;;8.90;99.90;;;;;;5010396;28;20550;-71
2023/04/16 01:37:43;;;;;;;11.85;2.67;;;8.90;99.90;;;;;;5010967;28;20018;-71
2023/04/16 01:40:09;;;;;;;8.95;2.72;;;8.90;99.90;;;;;;5011242;28;20449;-71
2023/04/16 01:42:36;;;;;;;14.68;3.28;;;8.90;99.90;;;;;;5010173;28;20050;-71
2023/04/16 01:45:02;;;;;;;10.35;3.00;;;8.90;99.90;;;;;;5011399;28;20026;-71
2023/04/16 01:47:27;;;;;;;10.88;2.72;;;8.90;99.90;;;;;;5010584;28;20038;-72
2023/04/16 01:49:53;;;;;;;13.55;3.08;;;8.90;99.90;;;;;;5010232;28;20394;-70
2023/04/16 01:52:18;;;;;;;16.23;3.00;;;8.90;99.90;;;;;;5009989;28;20022;-71
2023/04/16 01:54:44;;;;;;;15.85;3.00;;;8.90;99.90;;;;;;5010309;28;20033;-71
2023/04/16 01:57:10;;;;;;;13.90;3.10;;;8.90;99.90;;;;;;5010199;28;20018;-71
2023/04/16 01:59:35;;;;;;;8.80;3.05;;;8.90;99.90;;;;;;5010386;28;20022;-71
2023/04/16 02:02:09;;;;;;;19.63;3.63;;;8.90;99.90;;;;;;5009904;28;20010;-71
2023/04/16 02:04:39;;;;;;;16.33;3.60;;;8.90;99.90;;;;;;5012673;28;20026;-71
2023/04/16 02:07:06;;;;;;;13.75;3.35;;;8.80;99.90;;;;;;5013601;28;20060;-71
2023/04/16 02:09:34;;;;;;;16.25;3.67;;;8.80;99.90;;;;;;5013731;28;20136;-71
2023/04/16 02:12:01;;;;;;;12.68;3.35;;;8.80;99.90;;;;;;5014131;28;20030;-72
2023/04/16 02:14:27;;;;;;;15.75;3.78;;;8.80;99.90;;;;;;5013977;28;20429;-72
2023/04/16 02:16:53;;;;;;;15.85;3.25;;;8.80;99.90;;;;;;5013276;28;20056;-72
2023/04/16 02:19:18;;;;;;;13.68;3.38;;;8.80;99.90;;;;;;5013725;28;20026;-70
2023/04/16 02:21:44;;;;;;;17.02;3.40;;;8.80;99.90;;;;;;5013547;28;20033;-71
2023/04/16 02:24:10;;;;;;;15.60;3.10;;;8.80;99.90;;;;;;5013683;28;20018;-71
2023/04/16 02:26:35;;;;;;;14.27;3.50;;;8.80;99.90;;;;;;5012977;28;20100;-70
2023/04/16 02:29:01;;;;;;;16.52;3.50;;;8.80;99.90;;;;;;5013677;28;20056;-71
2023/04/16 02:31:27;;;;;;;15.57;3.72;;;8.80;99.90;;;;;;5013453;28;20314;-71
2023/04/16 02:33:53;;;;;;;12.55;3.60;;;8.80;99.90;;;;;;5019308;28;20026;-71
2023/04/16 02:36:19;;;;;;;22.65;4.18;;;8.80;99.90;;;;;;5012174;28;20360;-71
2023/04/16 02:38:45;;;;;;;10.35;3.22;;;8.70;99.90;;;;;;5013406;28;20021;-70
2023/04/16 02:41:10;;;;;;;14.13;3.67;;;8.70;99.90;;;;;;5011258;28;20025;-71
2023/04/16 02:43:36;;;;;;;12.57;3.83;;;8.70;99.90;;;;;;5013305;28;20373;-71
2023/04/16 02:46:02;;;;;;;10.45;3.40;;;8.70;99.90;;;;;;5002790;28;20022;-71
2023/04/16 02:48:27;;;;;;;17.20;3.70;;;8.70;99.90;;;;;;5002840;28;20567;-71
2023/04/16 02:50:53;;;;;;;13.45;3.55;;;8.70;99.90;;;;;;5008603;28;20022;-72
2023/04/16 02:53:18;;;;;;;15.43;3.80;;;8.60;99.90;;;;;;5006345;28;20029;-71
2023/04/16 02:55:54;;;;;;;15.50;3.50;;;8.60;99.90;;;;;;5012847;28;20025;-71
2023/04/16 02:58:20;;;;;;;;;;;8.60;99.90;;;;;;5013508;28;20053;-72
2023/04/16 03:00:46;;;;;;;13.30;3.65;;;8.60;99.90;;;;;;5012940;28;20402;-72
2023/04/16 03:03:12;;;;;;;14.73;3.88;;;8.50;99.90;;;;;;5012926;28;20030;-72
2023/04/16 03:05:37;;;;;;;16.67;3.97;;;8.50;99.90;;;;;;5012462;28;20025;-71
2023/04/16 03:08:03;;;;;;;12.23;4.68;;;8.50;99.90;;;;;;5012512;28;20026;-72
2023/04/16 03:10:29;;;;;;;11.80;3.78;;;8.50;99.90;;;;;;5012882;28;20346;-72
2023/04/16 03:12:54;;;;;;;18.80;4.38;;;8.50;99.90;;;;;;5010306;28;20017;-72
2023/04/16 03:15:20;;;;;;;17.80;4.43;;;8.50;99.90;;;;;;5010980;28;20117;-72
2023/04/16 03:17:46;;;;;;;14.40;4.40;;;8.50;99.90;;;;;;5002346;28;20073;-71
2023/04/16 03:20:11;;;;;;;13.50;4.07;;;8.50;99.90;;;;;;5024792;28;20426;-71
2023/04/16 03:22:40;;;;;;;14.75;4.00;;;8.50;99.90;;;;;;5012643;28;20029;-71
2023/04/16 03:25:07;;;;;;;11.15;3.88;;;8.50;99.90;;;;;;5012659;28;20109;-71
2023/04/16 03:27:33;;;;;;;18.70;3.97;;;8.50;99.90;;;;;;5012995;28;20163;-70
2023/04/16 03:29:58;;;;;;;18.20;4.30;;;8.50;99.90;;;;;;5012589;28;20084;-71
2023/04/16 03:32:24;;;;;;;19.40;4.47;;;8.50;99.90;;;;;;5012729;28;20025;-71
2023/04/16 03:34:50;;;;;;;17.52;4.07;;;8.50;99.90;;;;;;5012245;28;20022;-71
2023/04/16 03:37:15;;;;;;;22.40;4.68;;;8.50;99.90;;;;;;5012571;28;20029;-70
2023/04/16 03:39:41;;;;;;;14.55;4.43;;;8.50;99.90;;;;;;5012972;28;20380;-72
2023/04/16 03:42:07;;;;;;;16.30;4.50;;;8.50;99.90;;;;;;5012589;28;20053;-72
2023/04/16 03:44:32;;;;;;;15.43;4.35;;;8.50;99.90;;;;;;5012447;28;20025;-72
2023/04/16 03:46:58;;;;;;;17.05;4.68;;;8.50;99.90;;;;;;5012422;28;20488;-72
2023/04/16 03:49:24;;;;;;;29.83;4.88;;;8.50;99.90;;;;;;5012787;28;20305;-72
2023/04/16 03:51:50;;;;;;;23.25;4.90;;;8.50;99.90;;;;;;5012667;28;20055;-72
2023/04/16 03:54:15;;;;;;;18.13;4.40;;;8.40;99.90;;;;;;5012686;28;20101;-72
2023/04/16 03:56:41;;;;;;;22.20;4.65;;;8.40;99.90;;;;;;5012282;28;20022;-72
2023/04/16 03:59:06;;;;;;;23.33;4.60;;;8.40;99.90;;;;;;5012145;28;20543;-72
2023/04/16 04:01:32;;;;;;;20.77;4.82;;;8.50;99.90;;;;;;5011774;28;20034;-72
2023/04/16 04:03:58;;;;;;;25.75;4.55;;;8.50;99.90;;;;;;5011490;28;20033;-72
2023/04/16 04:06:23;;;;;;;17.67;4.53;;;8.50;99.90;;;;;;5011448;28;20022;-72
2023/04/16 04:08:49;;;;;;;20.58;4.15;;;8.50;99.90;;;;;;5011276;28;20109;-72
2023/04/16 04:11:15;;;;;;;33.25;5.32;;;8.50;99.90;;;;;;5011728;28;20026;-72
2023/04/16 04:13:40;;;;;;;16.48;4.03;;;8.50;99.90;;;;;;5011597;28;20373;-72
2023/04/16 04:16:06;;;;;;;21.17;4.55;;;8.50;99.90;;;;;;5001653;28;20100;-72
2023/04/16 04:18:32;;;;;;;18.30;4.90;;;8.50;99.90;;;;;;5008605;28;20026;-73
2023/04/16 04:20:57;;;;;;;20.00;4.10;;;8.50;99.90;;;;;;5011780;28;20030;-72
2023/04/16 04:23:23;;;;;;;24.95;5.13;;;8.50;99.90;;;;;;5007404;28;20551;-72
2023/04/16 04:25:49;;;;;;;17.15;4.30;;;8.50;99.90;;;;;;5002961;28;20026;-72
2023/04/16 04:28:15;;;;;;;17.20;4.10;;;8.50;99.90;;;;;;5010921;28;20014;-72
2023/04/16 04:30:40;;;;;;;19.02;4.10;;;8.50;99.90;;;;;;5012386;28;20061;-73
2023/04/16 04:33:06;;;;;;;17.13;3.72;;;8.50;99.90;;;;;;5012282;28;20484;-72
2023/04/16 04:35:32;;;;;;;11.15;3.92;;;8.50;99.90;;;;;;5012857;28;20092;-73
2023/04/16 04:37:58;;;;;;;17.98;3.63;;;8.50;99.90;;;;;;5012018;28;20076;-73
2023/04/16 04:40:23;;;;;;;15.63;3.78;;;8.50;99.90;;;;;;5012434;28;20014;-73
2023/04/16 04:42:49;;;;;;;25.35;4.15;;;8.50;99.90;;;;;;5012174;28;20018;-72
2023/04/16 04:45:15;;;;;;;13.50;3.67;;;8.40;99.90;;;;;;5011283;28;20052;-72
2023/04/16 04:47:40;;;;;;;14.27;3.90;;;8.40;99.90;;;;;;5006701;28;20039;-72
2023/04/16 04:50:06;;;;;;;17.60;3.85;;;8.40;99.90;;;;;;5004397;28;20461;-71
2023/04/16 04:52:32;;;;;;;18.25;3.55;;;8.40;99.90;;;;;;5011331;28;20380;-72
2023/04/16 04:54:58;;;;;;;18.70;4.53;;;8.40;99.90;;;;;;5011020;28;20044;-73
2023/04/16 04:57:23;;;;;;;10.68;3.05;;;8.40;99.90;;;;;;5011264;28;20464;-71
2023/04/16 04:59:49;;;;;;;21.23;3.47;;;8.50;99.90;;;;;;5011625;28;20105;-72
2023/04/16 05:02:14;;;;;;;18.70;3.78;;;8.50;99.90;;;;;;5012965;28;20072;-72
2023/04/16 05:04:40;;;;;;;15.88;3.53;;;8.50;99.90;;;;;;5013722;28;20038;-71
2023/04/16 05:07:06;;;;;;;17.10;3.72;;;8.50;99.90;;;;;;5012768;28;20105;-70
2023/04/16 05:09:32;;;;;;;16.33;3.75;;;8.50;99.90;;;;;;5011492;28;20042;-70
2023/04/16 05:11:57;;;;;;;20.23;3.67;;;8.50;99.90;;;;;;5011588;28;20125;-71
2023/04/16 05:14:23;;;;;;;22.60;3.67;;;8.50;99.90;;;;;;5011757;28;20526;-71
2023/04/16 05:16:48;;;;;;;15.05;3.90;;;8.50;99.90;;;;;;5007531;28;20054;-72
2023/04/16 05:19:15;;;;;;;13.02;3.67;;;8.50;99.90;;;;;;5012217;28;20033;-71
2023/04/16 05:21:41;;;;;;;13.10;3.95;;;8.50;99.90;;;;;;5004750;28;20026;-72
2023/04/16 05:24:07;;;;;;;18.25;3.70;;;8.50;99.90;;;;;;5001481;28;20018;-71
2023/04/16 05:26:32;;;;;;;13.50;3.83;;;8.50;99.90;;;;;;5009780;28;20542;-70
2023/04/16 05:28:58;;;;;;;15.50;4.15;;;8.50;99.90;;;;;;5012154;28;20034;-71
2023/04/16 05:31:24;;;;;;;15.70;3.40;;;8.50;99.90;;;;;;5010639;28;20461;-71
2023/04/16 05:33:50;;;;;;;16.88;3.90;;;8.50;99.90;;;;;;5011900;28;20026;-72
2023/04/16 05:36:16;;;;;;;22.42;3.35;;;8.50;99.90;;;;;;5010338;28;20443;-71
2023/04/16 05:38:41;;;;;;;14.00;3.80;;;8.60;99.90;;;;;;5012562;28;20044;-71
2023/04/16 05:41:07;;;;;;;13.82;4.13;;;8.60;99.90;;;;;;5015893;28;20022;-71
2023/04/16 05:43:32;;;;;;;19.02;3.83;;;8.60;99.90;;;;;;5015472;28;20511;-71
2023/04/16 05:45:58;;;;;;;14.85;3.97;;;8.60;99.90;;;;;;5013386;28;20033;-72
2023/04/16 05:48:23;;;;;;;17.45;4.47;;;8.60;99.90;;;;;;5014815;28;20424;-72
2023/04/16 05:50:49;;;;;;;15.93;3.67;;;8.60;99.90;;;;;;5014314;28;20022;-71
2023/04/16 05:53:17;;;;;;;14.98;4.40;;;8.60;99.90;;;;;;5014314;28;20080;-72
2023/04/16 05:55:43;;;;;;;10.57;3.63;;;8.60;99.90;;;;;;5014652;28;20037;-72
2023/04/16 05:58:09;;;;;;;16.10;4.32;;;8.60;99.90;;;;;;5013914;28;20017;-71
2023/04/16 06:00:34;;;;;;;14.30;4.05;;;8.60;99.90;;;;;;5014778;28;20113;-71
2023/04/16 06:03:01;;;;;;;13.65;3.83;;;8.60;99.90;;;;;;5010524;28;20038;-72
2023/04/16 06:05:26;;;;;;;12.85;3.85;;;8.60;99.90;;;;;;5012114;28;20415;-71
2023/04/16 06:07:52;;;;;;;11.40;3.78;;;8.60;99.90;;;;;;5013831;28;20060;-72
2023/04/16 06:10:18;;;;;;;12.50;4.00;;;8.60;99.90;;;;;;5012655;28;20084;-71
2023/04/16 06:12:44;;;;;;;14.73;4.93;;;8.60;99.90;;;;;;5015161;28;20026;-71
2023/04/16 06:15:10;;;;;;;17.00;4.80;;;8.60;99.90;;;;;;5015133;28;20041;-71
2023/04/16 06:17:35;;;;;;;13.60;4.50;;;8.70;99.90;;;;;;5010840;28;20049;-71
2023/04/16 06:20:01;;;;;;;14.98;4.43;;;8.70;99.90;;;;;;5016980;28;20030;-71
2023/04/16 06:22:27;;;;;;;16.00;4.60;;;8.70;99.90;;;;;;5014046;28;20380;-71
2023/04/16 06:24:53;;;;;;;18.05;4.93;;;8.70;99.90;;;;;;5014124;28;20045;-71
2023/04/16 06:27:18;;;;;;;13.40;4.50;;;8.70;99.90;;;;;;5006367;28;20061;-72
2023/04/16 06:29:44;;;;;;;21.55;4.43;;;8.70;99.90;;;;;;5014734;28;20100;-71
2023/04/16 06:32:10;;;;;;;12.60;4.65;;;8.70;99.90;;;;;;5015101;28;20076;-71
2023/04/16 06:34:37;;;;;;;22.20;5.10;;;8.70;99.90;;;;;;5002023;28;20077;-71
2023/04/16 06:37:03;;;;;;;16.73;4.72;;;8.70;99.90;;;;;;5012895;28;20041;-71
2023/04/16 06:39:29;;;;;;;13.40;4.72;;;8.70;99.90;;;;;;5011493;28;20148;-71
2023/04/16 06:41:55;;;;;;;13.55;4.63;;;8.70;99.90;;;;;;5011822;28;20108;-71
2023/04/16 06:44:20;;;;;;;14.68;5.20;;;8.60;99.90;;;;;;5011189;28;20057;-70
2023/04/16 06:46:46;;;;;;;18.50;6.25;;;8.70;99.90;;;;;;5011504;28;20022;-72
2023/04/16 06:49:12;;;;;;;17.08;5.97;;;8.60;99.90;;;;;;5012080;28;20029;-72
2023/04/16 06:51:37;;;;;;;18.23;5.65;;;8.70;99.90;;;;;;5011186;28;20567;-72
2023/04/16 06:54:03;;;;;;;14.07;5.35;;;8.70;99.90;;;;;;5012443;28;20157;-72
2023/04/16 06:56:28;;;;;;;19.23;5.45;;;8.60;99.90;;;;;;5019961;28;20025;-72
2023/04/16 06:58:56;;;;;;;18.08;6.43;;;8.60;99.90;;;;;;5013054;28;20018;-72
2023/04/16 07:01:22;;;;;;;19.25;6.60;;;8.60;99.90;;;;;;5013536;28;20014;-72
2023/04/16 07:03:47;;;;;;;16.05;5.22;;;8.70;99.90;;;;;;5012629;28;20065;-71
2023/04/16 07:06:13;;;;;;;19.67;6.25;;;8.60;99.90;;;;;;5011545;28;20030;-72
2023/04/16 07:08:38;;;;;;;21.13;6.50;;;8.60;99.90;;;;;;5010638;28;20107;-71
2023/04/16 07:11:04;;;;;;;16.95;5.78;;;8.70;99.90;;;;;;5012114;28;20052;-71
2023/04/16 07:13:30;;;;;;;18.20;5.68;;;8.70;99.90;;;;;;5012579;28;20022;-71
2023/04/16 07:15:55;;;;;;;19.33;5.70;;;8.70;99.90;;;;;;5011595;28;20113;-70
2023/04/16 07:18:21;;;;;;;18.15;6.00;;;8.70;99.90;;;;;;5012554;28;20017;-71
2023/04/16 07:20:47;;;;;;;15.25;5.75;;;8.60;99.90;;;;;;5012789;28;20033;-70
2023/04/16 07:23:12;;;;;;;15.70;5.75;;;8.60;99.90;;;;;;5012481;28;20024;-71
2023/04/16 07:25:39;;;;;;;18.83;5.93;;;8.70;99.90;;;;;;5012628;28;20547;-71
2023/04/16 07:28:04;;;;;;;17.33;6.38;;;8.70;99.90;;;;;;5000067;28;20026;-71
2023/04/16 07:30:33;;;;;;;19.85;6.15;;;8.70;99.90;;;;;;5011589;28;20052;-71
2023/04/16 07:33:03;;;;;;;18.77;6.32;;;8.70;99.90;;;;;;5013005;28;20765;-73
2023/04/16 07:35:29;;;;;;;19.42;6.10;;;8.70;99.90;;;;;;5013864;28;20032;-71
2023/04/16 07:37:54;;;;;;;13.50;6.90;;;8.70;99.90;;;;;;5002249;28;20018;-71
2023/04/16 07:40:20;;;;;;;15.00;5.80;;;8.70;99.90;;;;;;5013539;28;20458;-71
2023/04/16 07:42:46;;;;;;;16.38;5.80;;;8.80;99.90;;;;;;5013235;28;20022;-72
2023/04/16 07:45:11;;;;;;;9.10;5.35;;;8.80;99.90;;;;;;5012915;28;20080;-73
2023/04/16 07:47:37;;;;;;;13.40;5.25;;;8.80;99.90;;;;;;5013033;28;20030;-72
2023/04/16 07:50:03;;;;;;;13.50;5.38;;;8.80;99.90;;;;;;5012772;28;20088;-71
2023/04/16 07:52:29;;;;;;;14.70;5.70;;;8.80;99.90;;;;;;5012523;28;20022;-72
2023/04/16 07:54:54;;;;;;;10.55;5.55;;;8.80;99.90;;;;;;5012740;28;20021;-71
2023/04/16 07:57:20;;;;;;;15.77;5.85;;;8.90;99.90;;;;;;5012462;28;20066;-72
2023/04/16 07:59:45;;;;;;;15.65;5.65;;;8.90;99.90;;;;;;5012540;28;20029;-71
2023/04/16 08:02:14;;;;;;;13.68;5.30;;;8.90;99.90;;;;;;5011474;28;20018;-72
2023/04/16 08:04:41;;;;;;;8.27;4.55;;;8.90;99.90;;;;;;5012488;28;20037;-72
2023/04/16 08:07:06;;;;;;;13.77;5.38;;;9.00;99.90;;;;;;4999403;28;20057;-72
2023/04/16 08:09:33;;;;;;;10.68;5.57;;;9.00;99.90;;;;;;5012013;28;20116;-72
2023/04/16 08:11:59;;;;;;;15.45;5.20;;;9.00;99.90;;;;;;5012015;28;20137;-71
2023/04/16 08:14:25;;;;;;;17.13;5.80;;;9.00;99.90;;;;;;5011961;28;20026;-71
2023/04/16 08:16:51;;;;;;;21.02;6.57;;;9.00;99.90;;;;;;5012488;28;20514;-71
2023/04/16 08:19:16;;;;;;;14.45;5.90;;;9.00;99.90;;;;;;5020829;28;20017;-71
2023/04/16 08:21:42;;;;;;;17.65;5.78;;;9.00;99.90;;;;;;4998956;28;20018;-71
2023/04/16 08:24:08;;;;;;;13.40;5.95;;;9.00;99.90;;;;;;5012515;28;20026;-70
2023/04/16 08:26:33;;;;;;;19.95;6.70;;;9.00;99.90;;;;;;4999396;28;20488;-71
2023/04/16 08:28:59;;;;;;;16.85;6.35;;;9.00;99.90;;;;;;5012133;28;20109;-71
2023/04/16 08:31:25;;;;;;;16.25;6.20;;;9.10;99.90;;;;;;5012401;28;20018;-71
2023/04/16 08:33:50;;;;;;;13.57;6.57;;;9.10;99.90;;;;;;5011959;28;20026;-72
2023/04/16 08:36:16;;;;;;;15.88;5.90;;;9.10;99.90;;;;;;5012259;28;20030;-71
2023/04/16 08:38:41;;;;;;;14.10;5.43;;;9.20;99.90;;;;;;5012790;28;20101;-73
2023/04/16 08:41:11;;;;;;;13.23;5.47;;;9.20;99.90;;;;;;5011662;28;20110;-73
2023/04/16 08:43:41;;;;;;;15.38;5.80;;;9.20;99.90;;;;;;5012155;28;20029;-72
2023/04/16 08:46:08;;;;;;;18.17;5.78;;;9.20;99.90;;;;;;5011966;28;20064;-72
2023/04/16 08:48:34;;;;;;;18.88;5.22;;;9.20;99.90;;;;;;5012172;28;20026;-72
2023/04/16 08:51:01;;;;;;;17.60;5.97;;;9.20;99.90;;;;;;5011439;28;20394;-72
2023/04/16 08:53:51;;;;;;;13.63;5.80;;;9.20;99.90;;;;;;5011852;28;20036;-72
2023/04/16 08:56:22;;;;;;;14.55;5.25;;;9.20;99.90;;;;;;5008312;28;20053;-71
2023/04/16 08:58:50;;;;;;;14.77;4.97;;;9.10;99.90;;;;;;5015253;28;20041;-71
2023/04/16 09:01:17;;;;;;;14.85;5.35;;;9.10;99.90;;;;;;5012883;28;20114;-71
2023/04/16 09:03:47;;;;;;;16.02;4.97;;;9.20;99.90;;;;;;5011984;28;20101;-71
2023/04/16 09:06:14;;;;;;;15.82;4.88;;;9.20;99.90;;;;;;5010814;28;20445;-70
2023/04/16 09:08:40;;;;;;;9.68;4.82;;;9.20;99.90;;;;;;5011026;28;20026;-71
2023/04/16 09:11:06;;;;;;;15.07;5.00;;;9.20;99.90;;;;;;5011035;28;20471;-72
2023/04/16 09:13:32;;;;;;;12.48;4.90;;;9.30;99.90;;;;;;5022010;28;20026;-70
2023/04/16 09:15:58;;;;;;;12.52;4.90;;;9.30;99.90;;;;;;5011445;28;20156;-72
2023/04/16 09:18:24;;;;;;;15.00;4.75;;;9.30;99.90;;;;;;5010701;28;20034;-72
2023/04/16 09:20:51;;;;;;;17.23;5.22;;;9.30;99.90;;;;;;5011338;28;20029;-70
2023/04/16 09:23:17;;;;;;;15.88;5.20;;;9.30;99.90;;;;;;5010992;28;20025;-71
2023/04/16 09:25:42;;;;;;;14.10;5.18;;;9.20;99.90;;;;;;5011197;28;20030;-71
2023/04/16 09:28:09;;;;;;;18.02;5.35;;;9.20;99.90;;;;;;5010888;28;20022;-71
2023/04/16 09:30:36;;;;;;;14.65;5.55;;;9.20;99.90;;;;;;5011069;28;20022;-72
2023/04/16 09:33:20;;;;;;;17.63;5.88;;;9.20;99.90;;;;;;5010716;28;20029;-72
2023/04/16 09:35:47;;;;;;;17.70;6.15;;;9.30;99.90;;;;;;5011021;28;20026;-71
2023/04/16 09:38:13;;;;;;;17.88;6.35;;;9.30;99.90;;;;;;5010461;28;20030;-71
2023/04/16 09:40:39;;;;;;;16.73;5.90;;;9.30;99.90;;;;;;5016311;28;20044;-71
2023/04/16 09:43:15;;;;;;;14.32;5.45;;;9.30;99.90;;;;;;5010715;28;20014;-70
2023/04/16 09:45:51;;;;;;;21.25;6.70;;;9.30;99.90;;;;;;5010603;28;20029;-72
2023/04/16 09:48:31;;;;;;;17.25;6.10;;;9.30;99.90;;;;;;5010997;28;20038;-71
2023/04/16 09:50:57;;;;;;;14.32;6.10;;;9.30;99.90;;;;;;5011011;28;20491;-73
2023/04/16 09:53:28;;;;;;;17.15;6.03;;;9.30;99.90;;;;;;5011407;28;20468;-72
2023/04/16 09:56:02;;;;;;;14.85;5.75;;;9.30;99.90;;;;;;5011057;28;20018;-73
2023/04/16 09:58:28;;;;;;;15.98;6.32;;;9.30;99.90;;;;;;5010739;28;20045;-74
2023/04/16 10:01:05;;;;;;;17.95;6.43;;;9.30;99.90;;;;;;5010900;28;20022;-72
2023/04/16 10:03:33;;;;;;;17.33;7.25;;;9.30;99.90;;;;;;5011521;28;20365;-72
2023/04/16 10:06:20;;;;;;;19.85;7.18;;;9.30;99.90;;;;;;5005603;28;20025;-72
2023/04/16 10:08:51;;;;;;;26.30;7.57;;;9.30;99.90;;;;;;5009682;28;20030;-71
2023/04/16 10:11:18;;;;;;;29.30;7.18;;;9.40;99.90;;;;;;5010653;28;20049;-71
2023/04/16 10:13:44;;;;;;;19.00;7.15;;;9.40;99.90;;;;;;5010697;28;20460;-71
2023/04/16 10:16:10;;;;;;;28.38;7.68;;;9.40;99.90;;;;;;4999646;28;20549;-71
2023/04/16 10:18:38;;;;;;;24.98;6.60;;;9.50;99.90;;;;;;5008200;28;20045;-71
2023/04/16 10:21:05;;;;;;;21.33;6.95;;;9.50;99.90;;;;;;5010473;28;20175;-71
2023/04/16 10:23:34;;;;;;;16.75;6.38;;;9.50;99.90;;;;;;5009928;28;20018;-71
2023/04/16 10:26:01;;;;;;;17.77;6.07;;;9.50;99.90;;;;;;5013328;28;20037;-74
2023/04/16 10:28:28;;;;;;;17.63;6.20;;;9.50;99.90;;;;;;5013915;28;20029;-70
2023/04/16 10:30:56;;;;;;;18.58;6.72;;;9.50;99.90;;;;;;5013642;28;20072;-73
2023/04/16 10:33:35;;;;;;;20.73;6.63;;;9.50;99.90;;;;;;5008208;28;20030;-71
2023/04/16 10:36:15;;;;;;;17.83;7.35;;;9.50;99.90;;;;;;5010414;28;20050;-72
2023/04/16 10:38:46;;;;;;;22.70;7.50;;;9.60;99.90;;;;;;5014690;28;20121;-72
2023/04/16 10:41:12;;;;;;;14.52;6.32;;;9.60;99.90;;;;;;5013273;28;20093;-72
2023/04/16 10:43:43;;;;;;;19.90;6.40;;;9.70;99.90;;;;;;5014035;28;20539;-72
2023/04/16 10:46:19;;;;;;;20.67;7.03;;;9.60;99.90;;;;;;5009532;28;20197;-70
2023/04/16 10:48:45;;;;;;;17.77;6.28;;;9.60;99.90;;;;;;5009817;28;20034;-71
2023/04/16 10:51:26;;;;;;;19.45;6.30;;;9.60;99.90;;;;;;5006556;28;20015;-71
2023/04/16 10:53:54;;;;;;;19.23;6.38;;;9.60;99.90;;;;;;5012463;28;20109;-71
2023/04/16 10:56:29;;;;;;;18.13;6.18;;;9.70;99.90;;;;;;5015208;28;20033;-70
2023/04/16 10:58:55;;;;;;;14.90;5.85;;;9.70;99.90;;;;;;5007787;28;20452;-71
2023/04/16 11:01:32;;;;;;;14.77;6.18;;;9.60;99.90;;;;;;5010794;28;20026;-71
2023/04/16 11:04:00;;;;;;;17.65;6.55;;;9.70;99.90;;;;;;5013356;28;20033;-72
2023/04/16 11:06:27;;;;;;;12.02;5.93;;;9.70;99.90;;;;;;5013777;28;20029;-72
2023/04/16 11:08:53;;;;;;;16.73;6.25;;;9.70;99.90;;;;;;5011730;28;20034;-71
2023/04/16 11:11:18;;;;;;;15.90;5.75;;;9.80;99.90;;;;;;5013377;28;20032;-72
2023/04/16 11:13:45;;;;;;;14.73;5.90;;;9.80;99.90;;;;;;5013692;28;20473;-72
2023/04/16 11:16:13;;;;;;;18.98;6.30;;;9.70;99.90;;;;;;5012810;28;20026;-72
2023/04/16 11:18:40;;;;;;;20.83;6.90;;;9.70;99.90;;;;;;5012400;28;20463;-72
2023/04/16 11:21:10;;;;;;;18.58;6.80;;;9.80;99.90;;;;;;5013269;28;20020;-70
2023/04/16 11:23:46;;;;;;;13.00;6.38;;;9.70;99.90;;;;;;5006423;28;20027;-70
2023/04/16 11:26:26;;;;;;;20.05;6.60;;;9.70;99.90;;;;;;5006716;28;20038;-72
2023/04/16 11:28:54;;;;;;;13.05;6.07;;;9.80;99.90;;;;;;5013539;28;20117;-71
2023/04/16 11:31:20;;;;;;;14.27;5.78;;;9.80;99.90;;;;;;5014054;28;20036;-71
2023/04/16 11:33:45;;;;;;;15.75;5.90;;;9.80;99.90;;;;;;5013515;28;20105;-71
2023/04/16 11:36:11;;;;;;;11.05;5.22;;;9.80;99.90;;;;;;5011828;28;20037;-71
2023/04/16 11:38:39;;;;;;;16.63;6.25;;;9.80;99.90;;;;;;5014037;28;20033;-71
2023/04/16 11:41:06;;;;;;;15.38;6.03;;;9.80;99.90;;;;;;5012839;28;20040;-71
2023/04/16 11:43:31;;;;;;;13.15;5.70;;;9.80;99.90;;;;;;5013498;28;20580;-70
2023/04/16 11:45:59;;;;;;;20.80;6.35;;;9.90;99.90;;;;;;5009330;28;20026;-70
2023/04/16 11:48:25;;;;;;;17.08;6.00;;;9.90;99.90;;;;;;4996132;28;20028;-71
2023/04/16 11:50:57;;;;;;;14.00;5.55;;;10.00;99.90;;;;;;5012525;28;20029;-70
2023/04/16 11:53:23;;;;;;;14.05;6.55;;;10.00;99.90;;;;;;5012813;28;20021;-70
2023/04/16 11:55:49;;;;;;;16.80;7.22;;;10.00;99.90;;;;;;5002850;28;20464;-71
2023/04/16 11:58:15;;;;;;;20.23;7.75;;;10.10;99.90;;;;;;5012941;28;20560;-70
2023/04/16 12:00:42;;;;;;;16.75;7.45;;;10.10;99.90;;;;;;5013038;28;20172;-71
2023/04/16 12:03:08;;;;;;;16.92;7.60;;;10.20;99.90;;;;;;5013103;28;20538;-71
2023/04/16 12:05:38;;;;;;;15.35;7.13;;;10.20;99.90;;;;;;5012823;28;20101;-70
2023/04/16 12:08:09;;;;;;;20.73;7.45;;;10.10;99.90;;;;;;5011299;28;20056;-71
2023/04/16 12:10:55;;;;;;;14.50;7.30;;;10.20;99.90;;;;;;5010647;28;20053;-71
2023/04/16 12:13:21;;;;;;;15.38;6.82;;;10.10;99.90;;;;;;5011467;28;20132;-72
2023/04/16 12:15:51;;;;;;;20.98;8.05;;;10.10;99.90;;;;;;5005044;28;20022;-71
2023/04/16 12:18:19;;;;;;;16.10;7.20;;;10.10;99.90;;;;;;5007203;28;20022;-71
2023/04/16 12:20:45;;;;;;;21.98;7.55;;;10.10;99.90;;;;;;5012221;28;20026;-71
2023/04/16 12:23:29;;;;;;;18.77;7.60;;;10.10;99.90;;;;;;5011767;28;20056;-71
2023/04/16 12:25:58;;;;;;;19.55;7.53;;;10.10;99.90;;;;;;5011935;28;20034;-71
2023/04/16 12:28:32;;;;;;;17.85;7.30;;;10.10;99.90;;;;;;5011779;28;20483;-71
2023/04/16 12:30:58;;;;;;;18.42;7.20;;;10.20;99.90;;;;;;5011475;28;20022;-71
2023/04/16 12:33:24;;;;;;;17.02;7.30;;;10.20;99.90;;;;;;5009776;28;20092;-71
2023/04/16 12:35:50;;;;;;;25.00;7.65;;;10.20;99.90;;;;;;5009856;28;20255;-71
2023/04/16 12:38:15;;;;;;;26.38;7.35;;;10.20;99.90;;;;;;5010634;28;20528;-72
2023/04/16 12:40:41;;;;;;;17.83;8.90;;;10.20;99.90;;;;;;5014804;28;20078;-71
2023/04/16 12:43:08;;;;;;;22.10;9.23;;;10.30;99.90;;;;;;5010313;28;20148;-71